sensor_id;sensor_type;location;lat;lon;timestamp;P1;durP1;ratioP1;P2;durP2;ratioP2
15848;SDS011;8024;48.708;9.394;2023-02-15T00:00:18;18.50;;;13.33;;
15848;SDS011;8024;48.708;9.394;2023-02-15T00:02:45;17.80;;;13.03;;
15848;SDS011;8024;48.708;9.394;2023-02-15T00:05:13;16.77;;;12.73;;
15848;SDS011;8024;48.708;9.394;2023-02-15T00:07:40;17.63;;;13.30;;
15848;SDS011;8024;48.708;9.394;2023-02-15T00:10:07;19.20;;;12.60;;
15848;SDS011;8024;48.708;9.394;2023-02-15T00:12:37;17.80;;;13.17;;
15848;SDS011;8024;48.708;9.394;2023-02-15T00:15:04;17.50;;;12.23;;
15848;SDS011;8024;48.708;9.394;2023-02-15T00:17:32;15.60;;;11.57;;
15848;SDS011;8024;48.708;9.394;2023-02-15T00:20:00;20.80;;;12.87;;
15848;SDS011;8024;48.708;9.394;2023-02-15T00:22:27;16.37;;;12.33;;
15848;SDS011;8024;48.708;9.394;2023-02-15T00:24:54;19.90;;;12.93;;
15848;SDS011;8024;48.708;9.394;2023-02-15T00:27:21;17.50;;;12.47;;
15848;SDS011;8024;48.708;9.394;2023-02-15T00:29:49;17.70;;;12.50;;
15848;SDS011;8024;48.708;9.394;2023-02-15T00:32:16;16.20;;;11.83;;
15848;SDS011;8024;48.708;9.394;2023-02-15T00:34:44;18.53;;;13.27;;
15848;SDS011;8024;48.708;9.394;2023-02-15T00:37:11;17.90;;;13.23;;
15848;SDS011;8024;48.708;9.394;2023-02-15T00:39:39;16.37;;;13.03;;
15848;SDS011;8024;48.708;9.394;2023-02-15T00:42:06;18.07;;;12.97;;
15848;SDS011;8024;48.708;9.394;2023-02-15T00:44:33;16.13;;;12.87;;
15848;SDS011;8024;48.708;9.394;2023-02-15T00:47:00;18.63;;;12.77;;
15848;SDS011;8024;48.708;9.394;2023-02-15T00:49:27;16.93;;;12.50;;
15848;SDS011;8024;48.708;9.394;2023-02-15T00:51:55;17.00;;;12.83;;
15848;SDS011;8024;48.708;9.394;2023-02-15T00:54:23;17.17;;;12.70;;
15848;SDS011;8024;48.708;9.394;2023-02-15T00:56:50;18.30;;;12.97;;
15848;SDS011;8024;48.708;9.394;2023-02-15T00:59:17;15.67;;;12.40;;
15848;SDS011;8024;48.708;9.394;2023-02-15T01:01:44;17.57;;;12.53;;
15848;SDS011;8024;48.708;9.394;2023-02-15T01:04:11;16.40;;;12.97;;
15848;SDS011;8024;48.708;9.394;2023-02-15T01:06:38;18.30;;;13.43;;
15848;SDS011;8024;48.708;9.394;2023-02-15T01:09:07;19.07;;;12.87;;
15848;SDS011;8024;48.708;9.394;2023-02-15T01:11:34;18.13;;;13.13;;
15848;SDS011;8024;48.708;9.394;2023-02-15T01:14:01;17.70;;;13.03;;
15848;SDS011;8024;48.708;9.394;2023-02-15T01:16:30;18.07;;;13.20;;
15848;SDS011;8024;48.708;9.394;2023-02-15T01:18:57;18.37;;;12.23;;
15848;SDS011;8024;48.708;9.394;2023-02-15T01:21:25;17.83;;;13.70;;
15848;SDS011;8024;48.708;9.394;2023-02-15T01:23:52;19.50;;;13.33;;
15848;SDS011;8024;48.708;9.394;2023-02-15T01:26:21;22.60;;;13.70;;
15848;SDS011;8024;48.708;9.394;2023-02-15T01:28:48;21.53;;;15.10;;
15848;SDS011;8024;48.708;9.394;2023-02-15T01:31:16;17.73;;;13.40;;
15848;SDS011;8024;48.708;9.394;2023-02-15T01:33:46;19.83;;;13.37;;
15848;SDS011;8024;48.708;9.394;2023-02-15T01:36:14;18.77;;;13.30;;
15848;SDS011;8024;48.708;9.394;2023-02-15T01:38:42;19.33;;;15.13;;
15848;SDS011;8024;48.708;9.394;2023-02-15T01:41:09;22.67;;;14.83;;
15848;SDS011;8024;48.708;9.394;2023-02-15T01:43:54;23.13;;;15.13;;
15848;SDS011;8024;48.708;9.394;2023-02-15T01:46:24;20.47;;;15.63;;
15848;SDS011;8024;48.708;9.394;2023-02-15T01:48:54;24.40;;;15.63;;
15848;SDS011;8024;48.708;9.394;2023-02-15T01:51:24;20.07;;;14.50;;
15848;SDS011;8024;48.708;9.394;2023-02-15T01:53:56;19.93;;;14.10;;
15848;SDS011;8024;48.708;9.394;2023-02-15T01:56:28;23.93;;;14.83;;
15848;SDS011;8024;48.708;9.394;2023-02-15T01:59:00;18.40;;;12.53;;
15848;SDS011;8024;48.708;9.394;2023-02-15T02:01:31;18.53;;;13.37;;
15848;SDS011;8024;48.708;9.394;2023-02-15T02:03:59;17.57;;;12.70;;
15848;SDS011;8024;48.708;9.394;2023-02-15T02:06:32;15.90;;;11.53;;
15848;SDS011;8024;48.708;9.394;2023-02-15T02:09:00;17.63;;;13.40;;
15848;SDS011;8024;48.708;9.394;2023-02-15T02:11:28;18.00;;;12.70;;
15848;SDS011;8024;48.708;9.394;2023-02-15T02:13:55;19.67;;;13.10;;
15848;SDS011;8024;48.708;9.394;2023-02-15T02:16:25;17.13;;;13.13;;
15848;SDS011;8024;48.708;9.394;2023-02-15T02:19:05;19.80;;;13.33;;
15848;SDS011;8024;48.708;9.394;2023-02-15T02:22:07;18.73;;;12.27;;
15848;SDS011;8024;48.708;9.394;2023-02-15T02:27:38;17.47;;;11.60;;
15848;SDS011;8024;48.708;9.394;2023-02-15T02:30:18;17.27;;;13.50;;
15848;SDS011;8024;48.708;9.394;2023-02-15T02:33:11;17.60;;;13.27;;
15848;SDS011;8024;48.708;9.394;2023-02-15T02:35:48;19.73;;;13.00;;
15848;SDS011;8024;48.708;9.394;2023-02-15T02:38:23;20.83;;;13.50;;
15848;SDS011;8024;48.708;9.394;2023-02-15T02:40:59;17.13;;;13.07;;
15848;SDS011;8024;48.708;9.394;2023-02-15T02:43:34;19.10;;;12.40;;
15848;SDS011;8024;48.708;9.394;2023-02-15T02:46:07;18.33;;;12.73;;
15848;SDS011;8024;48.708;9.394;2023-02-15T02:48:41;17.90;;;12.60;;
15848;SDS011;8024;48.708;9.394;2023-02-15T02:51:09;17.33;;;12.13;;
15848;SDS011;8024;48.708;9.394;2023-02-15T02:53:36;16.93;;;10.53;;
15848;SDS011;8024;48.708;9.394;2023-02-15T02:56:05;20.30;;;12.27;;
15848;SDS011;8024;48.708;9.394;2023-02-15T02:58:38;16.87;;;12.37;;
15848;SDS011;8024;48.708;9.394;2023-02-15T03:01:09;19.07;;;13.70;;
15848;SDS011;8024;48.708;9.394;2023-02-15T03:03:40;18.93;;;12.23;;
15848;SDS011;8024;48.708;9.394;2023-02-15T03:06:11;18.17;;;12.30;;
15848;SDS011;8024;48.708;9.394;2023-02-15T03:08:44;18.83;;;12.90;;
15848;SDS011;8024;48.708;9.394;2023-02-15T03:11:16;16.50;;;12.40;;
15848;SDS011;8024;48.708;9.394;2023-02-15T03:13:43;16.23;;;11.37;;
15848;SDS011;8024;48.708;9.394;2023-02-15T03:16:12;20.90;;;13.47;;
15848;SDS011;8024;48.708;9.394;2023-02-15T03:18:55;15.50;;;12.40;;
15848;SDS011;8024;48.708;9.394;2023-02-15T03:21:27;19.83;;;13.00;;
15848;SDS011;8024;48.708;9.394;2023-02-15T03:23:59;19.10;;;13.17;;
15848;SDS011;8024;48.708;9.394;2023-02-15T03:26:30;16.10;;;12.37;;
15848;SDS011;8024;48.708;9.394;2023-02-15T03:29:00;18.47;;;13.20;;
15848;SDS011;8024;48.708;9.394;2023-02-15T03:31:30;18.93;;;12.77;;
15848;SDS011;8024;48.708;9.394;2023-02-15T03:34:02;17.93;;;13.93;;
15848;SDS011;8024;48.708;9.394;2023-02-15T03:36:33;16.50;;;12.17;;
15848;SDS011;8024;48.708;9.394;2023-02-15T03:39:07;18.43;;;12.23;;
15848;SDS011;8024;48.708;9.394;2023-02-15T03:41:39;20.00;;;12.90;;
15848;SDS011;8024;48.708;9.394;2023-02-15T03:44:12;19.73;;;13.57;;
15848;SDS011;8024;48.708;9.394;2023-02-15T03:46:42;18.57;;;11.93;;
15848;SDS011;8024;48.708;9.394;2023-02-15T03:49:15;18.93;;;13.47;;
15848;SDS011;8024;48.708;9.394;2023-02-15T03:51:48;20.57;;;12.70;;
15848;SDS011;8024;48.708;9.394;2023-02-15T03:54:16;16.37;;;12.37;;
15848;SDS011;8024;48.708;9.394;2023-02-15T03:57:00;20.40;;;13.53;;
15848;SDS011;8024;48.708;9.394;2023-02-15T03:59:41;17.00;;;12.10;;
15848;SDS011;8024;48.708;9.394;2023-02-15T04:02:27;17.43;;;11.97;;
15848;SDS011;8024;48.708;9.394;2023-02-15T04:05:02;18.97;;;12.37;;
15848;SDS011;8024;48.708;9.394;2023-02-15T04:07:30;18.47;;;13.43;;
15848;SDS011;8024;48.708;9.394;2023-02-15T04:09:57;16.47;;;11.70;;
15848;SDS011;8024;48.708;9.394;2023-02-15T04:12:41;17.73;;;12.80;;
15848;SDS011;8024;48.708;9.394;2023-02-15T04:15:08;18.57;;;13.37;;
15848;SDS011;8024;48.708;9.394;2023-02-15T04:17:56;17.43;;;13.20;;
15848;SDS011;8024;48.708;9.394;2023-02-15T04:20:25;17.13;;;12.40;;
15848;SDS011;8024;48.708;9.394;2023-02-15T04:23:09;18.03;;;12.47;;
15848;SDS011;8024;48.708;9.394;2023-02-15T04:25:54;18.13;;;11.80;;
15848;SDS011;8024;48.708;9.394;2023-02-15T04:28:21;15.73;;;11.60;;
15848;SDS011;8024;48.708;9.394;2023-02-15T04:30:48;17.50;;;11.07;;
15848;SDS011;8024;48.708;9.394;2023-02-15T04:33:15;18.00;;;12.27;;
15848;SDS011;8024;48.708;9.394;2023-02-15T04:35:44;18.70;;;12.57;;
15848;SDS011;8024;48.708;9.394;2023-02-15T04:38:11;18.67;;;13.23;;
15848;SDS011;8024;48.708;9.394;2023-02-15T04:40:38;18.80;;;12.63;;
15848;SDS011;8024;48.708;9.394;2023-02-15T04:43:05;17.77;;;12.77;;
15848;SDS011;8024;48.708;9.394;2023-02-15T04:45:32;18.63;;;13.23;;
15848;SDS011;8024;48.708;9.394;2023-02-15T04:48:00;17.73;;;12.87;;
15848;SDS011;8024;48.708;9.394;2023-02-15T04:50:27;16.07;;;11.80;;
15848;SDS011;8024;48.708;9.394;2023-02-15T04:52:55;18.83;;;12.27;;
15848;SDS011;8024;48.708;9.394;2023-02-15T04:55:22;16.97;;;11.93;;
15848;SDS011;8024;48.708;9.394;2023-02-15T04:57:51;18.33;;;12.77;;
15848;SDS011;8024;48.708;9.394;2023-02-15T05:00:18;18.13;;;12.30;;
15848;SDS011;8024;48.708;9.394;2023-02-15T05:02:46;16.63;;;12.03;;
15848;SDS011;8024;48.708;9.394;2023-02-15T05:05:13;16.30;;;11.50;;
15848;SDS011;8024;48.708;9.394;2023-02-15T05:07:41;18.17;;;13.13;;
15848;SDS011;8024;48.708;9.394;2023-02-15T05:10:09;15.37;;;12.37;;
15848;SDS011;8024;48.708;9.394;2023-02-15T05:12:37;15.93;;;11.50;;
15848;SDS011;8024;48.708;9.394;2023-02-15T05:15:04;17.83;;;11.93;;
15848;SDS011;8024;48.708;9.394;2023-02-15T05:17:31;17.10;;;11.37;;
15848;SDS011;8024;48.708;9.394;2023-02-15T05:19:59;15.67;;;10.73;;
15848;SDS011;8024;48.708;9.394;2023-02-15T05:22:26;15.47;;;11.67;;
15848;SDS011;8024;48.708;9.394;2023-02-15T05:24:53;19.77;;;12.67;;
15848;SDS011;8024;48.708;9.394;2023-02-15T05:27:40;17.57;;;12.17;;
15848;SDS011;8024;48.708;9.394;2023-02-15T05:30:24;17.67;;;12.07;;
15848;SDS011;8024;48.708;9.394;2023-02-15T05:32:52;16.23;;;11.13;;
15848;SDS011;8024;48.708;9.394;2023-02-15T05:35:19;16.97;;;11.70;;
15848;SDS011;8024;48.708;9.394;2023-02-15T05:37:46;17.77;;;13.07;;
15848;SDS011;8024;48.708;9.394;2023-02-15T05:40:13;19.50;;;12.47;;
15848;SDS011;8024;48.708;9.394;2023-02-15T05:42:41;16.13;;;11.77;;
15848;SDS011;8024;48.708;9.394;2023-02-15T05:45:09;19.30;;;14.00;;
15848;SDS011;8024;48.708;9.394;2023-02-15T05:47:36;17.33;;;13.67;;
15848;SDS011;8024;48.708;9.394;2023-02-15T05:50:03;22.97;;;14.77;;
15848;SDS011;8024;48.708;9.394;2023-02-15T05:52:31;22.43;;;14.23;;
15848;SDS011;8024;48.708;9.394;2023-02-15T05:54:58;21.20;;;15.37;;
15848;SDS011;8024;48.708;9.394;2023-02-15T05:57:27;18.30;;;14.37;;
15848;SDS011;8024;48.708;9.394;2023-02-15T05:59:56;19.93;;;14.50;;
15848;SDS011;8024;48.708;9.394;2023-02-15T06:02:23;22.10;;;16.13;;
15848;SDS011;8024;48.708;9.394;2023-02-15T06:04:50;28.90;;;18.53;;
15848;SDS011;8024;48.708;9.394;2023-02-15T06:07:17;22.17;;;16.93;;
15848;SDS011;8024;48.708;9.394;2023-02-15T06:09:44;23.47;;;15.77;;
15848;SDS011;8024;48.708;9.394;2023-02-15T06:12:11;22.33;;;16.57;;
15848;SDS011;8024;48.708;9.394;2023-02-15T06:14:38;20.83;;;15.77;;
15848;SDS011;8024;48.708;9.394;2023-02-15T06:17:07;22.30;;;15.67;;
15848;SDS011;8024;48.708;9.394;2023-02-15T06:19:34;22.77;;;15.13;;
15848;SDS011;8024;48.708;9.394;2023-02-15T06:22:01;20.47;;;14.57;;
15848;SDS011;8024;48.708;9.394;2023-02-15T06:24:28;19.33;;;13.53;;
15848;SDS011;8024;48.708;9.394;2023-02-15T06:26:55;17.70;;;13.37;;
15848;SDS011;8024;48.708;9.394;2023-02-15T06:29:23;22.07;;;14.30;;
15848;SDS011;8024;48.708;9.394;2023-02-15T06:31:50;17.10;;;12.87;;
15848;SDS011;8024;48.708;9.394;2023-02-15T06:34:18;13.60;;;11.40;;
15848;SDS011;8024;48.708;9.394;2023-02-15T06:36:45;12.17;;;10.83;;
15848;SDS011;8024;48.708;9.394;2023-02-15T06:39:13;14.13;;;10.53;;
15848;SDS011;8024;48.708;9.394;2023-02-15T06:41:40;15.23;;;11.43;;
15848;SDS011;8024;48.708;9.394;2023-02-15T06:44:07;11.53;;;10.17;;
15848;SDS011;8024;48.708;9.394;2023-02-15T06:46:34;13.30;;;10.30;;
15848;SDS011;8024;48.708;9.394;2023-02-15T06:49:01;16.90;;;11.70;;
15848;SDS011;8024;48.708;9.394;2023-02-15T06:51:30;14.97;;;11.30;;
15848;SDS011;8024;48.708;9.394;2023-02-15T06:53:58;16.70;;;12.60;;
15848;SDS011;8024;48.708;9.394;2023-02-15T06:56:26;17.30;;;12.90;;
15848;SDS011;8024;48.708;9.394;2023-02-15T06:58:53;19.53;;;14.47;;
15848;SDS011;8024;48.708;9.394;2023-02-15T07:01:20;17.57;;;12.17;;
15848;SDS011;8024;48.708;9.394;2023-02-15T07:03:47;16.40;;;12.70;;
15848;SDS011;8024;48.708;9.394;2023-02-15T07:06:14;14.37;;;11.57;;
15848;SDS011;8024;48.708;9.394;2023-02-15T07:08:43;15.83;;;12.20;;
15848;SDS011;8024;48.708;9.394;2023-02-15T07:11:10;16.00;;;11.27;;
15848;SDS011;8024;48.708;9.394;2023-02-15T07:13:55;15.83;;;11.20;;
15848;SDS011;8024;48.708;9.394;2023-02-15T07:16:22;15.27;;;11.13;;
15848;SDS011;8024;48.708;9.394;2023-02-15T07:18:49;14.90;;;11.60;;
15848;SDS011;8024;48.708;9.394;2023-02-15T07:21:16;13.73;;;11.20;;
15848;SDS011;8024;48.708;9.394;2023-02-15T07:23:45;13.00;;;10.83;;
15848;SDS011;8024;48.708;9.394;2023-02-15T07:26:12;14.00;;;10.90;;
15848;SDS011;8024;48.708;9.394;2023-02-15T07:28:39;15.10;;;12.07;;
15848;SDS011;8024;48.708;9.394;2023-02-15T07:31:07;25.90;;;13.10;;
15848;SDS011;8024;48.708;9.394;2023-02-15T07:33:34;16.17;;;12.17;;
15848;SDS011;8024;48.708;9.394;2023-02-15T07:36:02;13.40;;;11.30;;
15848;SDS011;8024;48.708;9.394;2023-02-15T07:38:31;13.13;;;10.97;;
15848;SDS011;8024;48.708;9.394;2023-02-15T07:41:01;13.73;;;11.90;;
15848;SDS011;8024;48.708;9.394;2023-02-15T07:43:30;14.10;;;11.33;;
15848;SDS011;8024;48.708;9.394;2023-02-15T07:46:00;15.80;;;12.10;;
15848;SDS011;8024;48.708;9.394;2023-02-15T07:48:28;16.10;;;12.80;;
15848;SDS011;8024;48.708;9.394;2023-02-15T07:50:58;18.37;;;12.00;;
15848;SDS011;8024;48.708;9.394;2023-02-15T07:53:25;15.17;;;10.80;;
15848;SDS011;8024;48.708;9.394;2023-02-15T07:55:53;13.93;;;11.97;;
15848;SDS011;8024;48.708;9.394;2023-02-15T07:58:22;16.73;;;13.23;;
15848;SDS011;8024;48.708;9.394;2023-02-15T08:01:10;20.13;;;14.30;;
15848;SDS011;8024;48.708;9.394;2023-02-15T08:03:37;18.10;;;13.53;;
15848;SDS011;8024;48.708;9.394;2023-02-15T08:06:04;16.97;;;12.90;;
15848;SDS011;8024;48.708;9.394;2023-02-15T08:08:32;18.40;;;13.00;;
15848;SDS011;8024;48.708;9.394;2023-02-15T08:11:01;18.93;;;13.50;;
15848;SDS011;8024;48.708;9.394;2023-02-15T08:13:48;20.33;;;13.23;;
15848;SDS011;8024;48.708;9.394;2023-02-15T08:16:23;19.63;;;14.37;;
15848;SDS011;8024;48.708;9.394;2023-02-15T08:18:51;18.73;;;13.70;;
15848;SDS011;8024;48.708;9.394;2023-02-15T08:21:18;18.40;;;13.90;;
15848;SDS011;8024;48.708;9.394;2023-02-15T08:23:45;22.00;;;14.97;;
15848;SDS011;8024;48.708;9.394;2023-02-15T08:26:13;21.60;;;14.73;;
15848;SDS011;8024;48.708;9.394;2023-02-15T08:28:41;20.93;;;15.67;;
15848;SDS011;8024;48.708;9.394;2023-02-15T08:31:11;23.80;;;18.40;;
15848;SDS011;8024;48.708;9.394;2023-02-15T08:33:40;26.37;;;19.23;;
15848;SDS011;8024;48.708;9.394;2023-02-15T08:36:09;22.23;;;17.33;;
15848;SDS011;8024;48.708;9.394;2023-02-15T08:38:37;21.00;;;16.33;;
15848;SDS011;8024;48.708;9.394;2023-02-15T08:41:12;21.33;;;15.13;;
15848;SDS011;8024;48.708;9.394;2023-02-15T08:43:40;21.83;;;15.20;;
15848;SDS011;8024;48.708;9.394;2023-02-15T08:46:10;20.53;;;15.57;;
15848;SDS011;8024;48.708;9.394;2023-02-15T08:48:40;18.77;;;14.70;;
15848;SDS011;8024;48.708;9.394;2023-02-15T08:51:08;21.60;;;16.57;;
15848;SDS011;8024;48.708;9.394;2023-02-15T08:53:37;17.23;;;14.87;;
15848;SDS011;8024;48.708;9.394;2023-02-15T08:56:05;21.30;;;16.33;;
15848;SDS011;8024;48.708;9.394;2023-02-15T08:58:33;19.83;;;15.67;;
15848;SDS011;8024;48.708;9.394;2023-02-15T09:01:01;20.17;;;14.67;;
15848;SDS011;8024;48.708;9.394;2023-02-15T09:03:37;19.80;;;14.77;;
15848;SDS011;8024;48.708;9.394;2023-02-15T09:06:04;19.87;;;15.00;;
15848;SDS011;8024;48.708;9.394;2023-02-15T09:08:32;21.60;;;17.23;;
15848;SDS011;8024;48.708;9.394;2023-02-15T09:11:06;22.50;;;15.87;;
15848;SDS011;8024;48.708;9.394;2023-02-15T09:13:34;19.00;;;14.17;;
15848;SDS011;8024;48.708;9.394;2023-02-15T09:16:02;20.70;;;15.40;;
15848;SDS011;8024;48.708;9.394;2023-02-15T09:18:32;21.37;;;16.23;;
15848;SDS011;8024;48.708;9.394;2023-02-15T09:21:06;20.10;;;15.73;;
15848;SDS011;8024;48.708;9.394;2023-02-15T09:23:35;21.30;;;15.27;;
15848;SDS011;8024;48.708;9.394;2023-02-15T09:26:03;21.80;;;15.40;;
15848;SDS011;8024;48.708;9.394;2023-02-15T09:28:31;20.67;;;16.47;;
15848;SDS011;8024;48.708;9.394;2023-02-15T09:31:08;20.47;;;16.23;;
15848;SDS011;8024;48.708;9.394;2023-02-15T09:33:38;20.23;;;14.80;;
15848;SDS011;8024;48.708;9.394;2023-02-15T09:36:13;21.30;;;16.17;;
15848;SDS011;8024;48.708;9.394;2023-02-15T09:38:41;19.73;;;16.17;;
15848;SDS011;8024;48.708;9.394;2023-02-15T09:41:13;18.60;;;13.73;;
15848;SDS011;8024;48.708;9.394;2023-02-15T09:43:50;19.43;;;14.40;;
15848;SDS011;8024;48.708;9.394;2023-02-15T09:46:33;17.17;;;14.10;;
15848;SDS011;8024;48.708;9.394;2023-02-15T09:49:11;17.93;;;14.07;;
15848;SDS011;8024;48.708;9.394;2023-02-15T09:51:58;20.10;;;14.90;;
15848;SDS011;8024;48.708;9.394;2023-02-15T09:54:47;17.67;;;14.73;;
15848;SDS011;8024;48.708;9.394;2023-02-15T09:57:27;18.87;;;14.13;;
15848;SDS011;8024;48.708;9.394;2023-02-15T10:00:02;16.07;;;13.90;;
15848;SDS011;8024;48.708;9.394;2023-02-15T10:02:46;17.47;;;14.20;;
15848;SDS011;8024;48.708;9.394;2023-02-15T10:05:25;20.20;;;13.93;;
15848;SDS011;8024;48.708;9.394;2023-02-15T10:08:05;18.13;;;14.60;;
15848;SDS011;8024;48.708;9.394;2023-02-15T10:10:44;18.20;;;14.67;;
15848;SDS011;8024;48.708;9.394;2023-02-15T10:13:23;20.50;;;14.67;;
15848;SDS011;8024;48.708;9.394;2023-02-15T10:16:05;20.67;;;14.80;;
15848;SDS011;8024;48.708;9.394;2023-02-15T10:18:53;19.00;;;14.77;;
15848;SDS011;8024;48.708;9.394;2023-02-15T10:21:30;20.63;;;14.50;;
15848;SDS011;8024;48.708;9.394;2023-02-15T10:27:23;16.60;;;13.37;;
15848;SDS011;8024;48.708;9.394;2023-02-15T10:29:54;17.30;;;13.70;;
15848;SDS011;8024;48.708;9.394;2023-02-15T10:32:30;18.30;;;14.13;;
15848;SDS011;8024;48.708;9.394;2023-02-15T10:35:07;16.00;;;13.67;;
15848;SDS011;8024;48.708;9.394;2023-02-15T10:37:47;17.53;;;13.87;;
15848;SDS011;8024;48.708;9.394;2023-02-15T10:40:22;15.50;;;12.60;;
15848;SDS011;8024;48.708;9.394;2023-02-15T10:43:01;14.10;;;11.63;;
15848;SDS011;8024;48.708;9.394;2023-02-15T10:45:37;14.70;;;11.80;;
15848;SDS011;8024;48.708;9.394;2023-02-15T10:48:17;14.60;;;12.10;;
15848;SDS011;8024;48.708;9.394;2023-02-15T10:50:51;15.67;;;11.63;;
15848;SDS011;8024;48.708;9.394;2023-02-15T10:53:29;15.00;;;11.90;;
15848;SDS011;8024;48.708;9.394;2023-02-15T10:56:10;13.67;;;11.77;;
15848;SDS011;8024;48.708;9.394;2023-02-15T10:58:56;14.87;;;10.90;;
15848;SDS011;8024;48.708;9.394;2023-02-15T11:01:34;15.83;;;12.17;;
15848;SDS011;8024;48.708;9.394;2023-02-15T11:04:08;12.67;;;11.33;;
15848;SDS011;8024;48.708;9.394;2023-02-15T11:07:12;14.60;;;11.77;;
15848;SDS011;8024;48.708;9.394;2023-02-15T11:09:44;14.87;;;11.47;;
15848;SDS011;8024;48.708;9.394;2023-02-15T11:12:16;15.60;;;11.80;;
15848;SDS011;8024;48.708;9.394;2023-02-15T11:14:49;14.03;;;11.13;;
15848;SDS011;8024;48.708;9.394;2023-02-15T11:17:22;14.03;;;11.80;;
15848;SDS011;8024;48.708;9.394;2023-02-15T11:19:54;15.60;;;11.30;;
15848;SDS011;8024;48.708;9.394;2023-02-15T11:22:27;14.10;;;11.77;;
15848;SDS011;8024;48.708;9.394;2023-02-15T11:24:56;15.07;;;11.30;;
15848;SDS011;8024;48.708;9.394;2023-02-15T11:27:26;14.23;;;11.60;;
15848;SDS011;8024;48.708;9.394;2023-02-15T11:29:59;11.63;;;9.93;;
15848;SDS011;8024;48.708;9.394;2023-02-15T11:32:30;14.00;;;10.57;;
15848;SDS011;8024;48.708;9.394;2023-02-15T11:35:00;11.80;;;10.37;;
15848;SDS011;8024;48.708;9.394;2023-02-15T11:37:32;11.37;;;9.83;;
15848;SDS011;8024;48.708;9.394;2023-02-15T11:40:03;12.53;;;9.43;;
15848;SDS011;8024;48.708;9.394;2023-02-15T11:42:41;12.50;;;9.00;;
15848;SDS011;8024;48.708;9.394;2023-02-15T11:45:16;10.20;;;8.47;;
15848;SDS011;8024;48.708;9.394;2023-02-15T11:47:48;10.37;;;9.27;;
15848;SDS011;8024;48.708;9.394;2023-02-15T11:50:17;14.90;;;10.63;;
15848;SDS011;8024;48.708;9.394;2023-02-15T11:52:47;11.97;;;9.27;;
15848;SDS011;8024;48.708;9.394;2023-02-15T11:55:18;12.57;;;9.93;;
15848;SDS011;8024;48.708;9.394;2023-02-15T11:57:48;11.20;;;9.90;;
15848;SDS011;8024;48.708;9.394;2023-02-15T12:00:24;10.60;;;9.23;;
15848;SDS011;8024;48.708;9.394;2023-02-15T12:03:00;9.47;;;8.13;;
15848;SDS011;8024;48.708;9.394;2023-02-15T12:05:33;9.60;;;8.60;;
15848;SDS011;8024;48.708;9.394;2023-02-15T12:08:08;12.17;;;10.20;;
15848;SDS011;8024;48.708;9.394;2023-02-15T12:10:40;13.60;;;10.77;;
15848;SDS011;8024;48.708;9.394;2023-02-15T12:13:14;11.57;;;9.67;;
15848;SDS011;8024;48.708;9.394;2023-02-15T12:15:44;11.57;;;9.83;;
15848;SDS011;8024;48.708;9.394;2023-02-15T12:21:03;8.87;;;7.97;;
15848;SDS011;8024;48.708;9.394;2023-02-15T12:23:33;11.13;;;9.00;;
15848;SDS011;8024;48.708;9.394;2023-02-15T12:26:07;11.43;;;7.93;;
15848;SDS011;8024;48.708;9.394;2023-02-15T12:28:35;10.63;;;7.10;;
15848;SDS011;8024;48.708;9.394;2023-02-15T12:31:09;8.57;;;7.37;;
15848;SDS011;8024;48.708;9.394;2023-02-15T12:33:45;10.47;;;7.80;;
15848;SDS011;8024;48.708;9.394;2023-02-15T12:36:15;8.97;;;8.07;;
15848;SDS011;8024;48.708;9.394;2023-02-15T12:38:49;11.13;;;9.30;;
15848;SDS011;8024;48.708;9.394;2023-02-15T12:41:30;22.73;;;13.80;;
15848;SDS011;8024;48.708;9.394;2023-02-15T12:44:04;12.00;;;9.93;;
15848;SDS011;8024;48.708;9.394;2023-02-15T12:46:34;13.53;;;9.27;;
15848;SDS011;8024;48.708;9.394;2023-02-15T12:49:05;11.03;;;9.10;;
15848;SDS011;8024;48.708;9.394;2023-02-15T12:51:47;10.90;;;7.97;;
15848;SDS011;8024;48.708;9.394;2023-02-15T12:54:17;8.67;;;7.57;;
15848;SDS011;8024;48.708;9.394;2023-02-15T12:56:59;10.00;;;8.53;;
15848;SDS011;8024;48.708;9.394;2023-02-15T12:59:51;8.90;;;8.00;;
15848;SDS011;8024;48.708;9.394;2023-02-15T13:02:22;12.90;;;10.77;;
15848;SDS011;8024;48.708;9.394;2023-02-15T13:04:51;11.37;;;9.17;;
15848;SDS011;8024;48.708;9.394;2023-02-15T13:07:19;9.63;;;8.13;;
15848;SDS011;8024;48.708;9.394;2023-02-15T13:09:47;10.23;;;8.43;;
15848;SDS011;8024;48.708;9.394;2023-02-15T13:12:17;10.87;;;9.73;;
15848;SDS011;8024;48.708;9.394;2023-02-15T13:14:47;10.57;;;8.90;;
15848;SDS011;8024;48.708;9.394;2023-02-15T13:17:16;11.27;;;9.03;;
15848;SDS011;8024;48.708;9.394;2023-02-15T13:19:47;10.47;;;8.73;;
15848;SDS011;8024;48.708;9.394;2023-02-15T13:22:18;12.20;;;9.27;;
15848;SDS011;8024;48.708;9.394;2023-02-15T13:24:48;12.80;;;8.07;;
15848;SDS011;8024;48.708;9.394;2023-02-15T13:27:20;12.37;;;9.10;;
15848;SDS011;8024;48.708;9.394;2023-02-15T13:29:50;11.93;;;9.17;;
15848;SDS011;8024;48.708;9.394;2023-02-15T13:32:24;10.07;;;9.07;;
15848;SDS011;8024;48.708;9.394;2023-02-15T13:34:56;10.97;;;8.80;;
15848;SDS011;8024;48.708;9.394;2023-02-15T13:37:31;11.67;;;9.47;;
15848;SDS011;8024;48.708;9.394;2023-02-15T13:40:12;12.10;;;8.93;;
15848;SDS011;8024;48.708;9.394;2023-02-15T13:42:44;10.53;;;9.40;;
15848;SDS011;8024;48.708;9.394;2023-02-15T13:48:18;10.80;;;8.70;;
15848;SDS011;8024;48.708;9.394;2023-02-15T13:50:56;12.00;;;9.10;;
15848;SDS011;8024;48.708;9.394;2023-02-15T13:53:36;9.97;;;8.60;;
15848;SDS011;8024;48.708;9.394;2023-02-15T13:56:25;10.20;;;8.80;;
15848;SDS011;8024;48.708;9.394;2023-02-15T13:59:12;12.07;;;8.70;;
15848;SDS011;8024;48.708;9.394;2023-02-15T14:01:49;11.97;;;8.67;;
15848;SDS011;8024;48.708;9.394;2023-02-15T14:04:34;11.60;;;9.50;;
15848;SDS011;8024;48.708;9.394;2023-02-15T14:07:18;10.43;;;8.80;;
15848;SDS011;8024;48.708;9.394;2023-02-15T14:10:02;10.73;;;8.87;;
15848;SDS011;8024;48.708;9.394;2023-02-15T14:12:46;11.10;;;9.17;;
15848;SDS011;8024;48.708;9.394;2023-02-15T14:15:26;11.60;;;9.53;;
15848;SDS011;8024;48.708;9.394;2023-02-15T14:20:31;12.77;;;9.57;;
15848;SDS011;8024;48.708;9.394;2023-02-15T14:23:11;15.10;;;11.10;;
15848;SDS011;8024;48.708;9.394;2023-02-15T14:25:53;14.40;;;11.63;;
15848;SDS011;8024;48.708;9.394;2023-02-15T14:28:25;13.60;;;10.97;;
15848;SDS011;8024;48.708;9.394;2023-02-15T14:30:56;15.87;;;11.37;;
15848;SDS011;8024;48.708;9.394;2023-02-15T14:33:28;17.70;;;12.47;;
15848;SDS011;8024;48.708;9.394;2023-02-15T14:35:58;17.33;;;12.90;;
15848;SDS011;8024;48.708;9.394;2023-02-15T14:38:32;18.93;;;13.13;;
15848;SDS011;8024;48.708;9.394;2023-02-15T14:41:16;18.87;;;13.13;;
15848;SDS011;8024;48.708;9.394;2023-02-15T14:43:48;17.87;;;14.33;;
15848;SDS011;8024;48.708;9.394;2023-02-15T14:46:24;17.93;;;14.07;;
15848;SDS011;8024;48.708;9.394;2023-02-15T14:48:56;17.57;;;13.50;;
15848;SDS011;8024;48.708;9.394;2023-02-15T14:57:27;15.33;;;13.53;;
15848;SDS011;8024;48.708;9.394;2023-02-15T14:59:59;23.70;;;15.30;;
15848;SDS011;8024;48.708;9.394;2023-02-15T15:02:40;20.50;;;15.03;;
15848;SDS011;8024;48.708;9.394;2023-02-15T15:05:12;20.10;;;14.37;;
15848;SDS011;8024;48.708;9.394;2023-02-15T15:07:44;20.43;;;14.90;;
15848;SDS011;8024;48.708;9.394;2023-02-15T15:16:24;18.40;;;14.33;;
15848;SDS011;8024;48.708;9.394;2023-02-15T15:19:10;19.63;;;15.20;;
15848;SDS011;8024;48.708;9.394;2023-02-15T15:21:54;21.07;;;15.37;;
15848;SDS011;8024;48.708;9.394;2023-02-15T15:39:33;18.20;;;13.73;;
15848;SDS011;8024;48.708;9.394;2023-02-15T15:42:28;20.13;;;15.30;;
15848;SDS011;8024;48.708;9.394;2023-02-15T15:45:11;17.97;;;15.53;;